sensor_id;sensor_type;location;lat;lon;timestamp;pressure;altitude;pressure_sealevel;temperature;humidity
36798;BME280;22748;8.426;99.512;2023-02-14T00:00:53;100795.88;;;28.96;57.96
36798;BME280;22748;8.426;99.512;2023-02-14T00:03:23;100794.63;;;28.91;58.64
36798;BME280;22748;8.426;99.512;2023-02-14T00:05:53;100798.38;;;28.90;58.82
36798;BME280;22748;8.426;99.512;2023-02-14T00:08:26;100806.22;;;28.85;58.59
36798;BME280;22748;8.426;99.512;2023-02-14T00:10:55;100806.41;;;28.77;59.01
36798;BME280;22748;8.426;99.512;2023-02-14T00:13:26;100805.53;;;28.70;59.14
36798;BME280;22748;8.426;99.512;2023-02-14T00:15:56;100820.22;;;28.67;59.15
36798;BME280;22748;8.426;99.512;2023-02-14T00:18:25;100818.16;;;28.63;59.13
36798;BME280;22748;8.426;99.512;2023-02-14T00:21:18;100818.56;;;28.60;59.38
36798;BME280;22748;8.426;99.512;2023-02-14T00:23:56;100826.81;;;28.58;59.21
36798;BME280;22748;8.426;99.512;2023-02-14T00:26:27;100836.75;;;28.58;59.72
36798;BME280;22748;8.426;99.512;2023-02-14T00:28:58;100826.38;;;28.55;59.70
36798;BME280;22748;8.426;99.512;2023-02-14T00:31:30;100837.97;;;28.48;59.79
36798;BME280;22748;8.426;99.512;2023-02-14T00:34:03;100839.34;;;28.38;60.22
36798;BME280;22748;8.426;99.512;2023-02-14T00:36:35;100840.16;;;28.38;60.49
36798;BME280;22748;8.426;99.512;2023-02-14T00:39:09;100840.78;;;28.40;59.96
36798;BME280;22748;8.426;99.512;2023-02-14T00:41:41;100852.97;;;28.43;60.08
36798;BME280;22748;8.426;99.512;2023-02-14T00:44:11;100855.63;;;28.29;59.83
36798;BME280;22748;8.426;99.512;2023-02-14T00:46:44;100855.63;;;28.29;60.60
36798;BME280;22748;8.426;99.512;2023-02-14T00:49:15;100857.88;;;28.33;60.41
36798;BME280;22748;8.426;99.512;2023-02-14T00:51:45;100859.53;;;28.27;60.90
36798;BME280;22748;8.426;99.512;2023-02-14T00:54:19;100867.19;;;28.30;60.70
36798;BME280;22748;8.426;99.512;2023-02-14T00:56:49;100879.59;;;28.31;60.84
36798;BME280;22748;8.426;99.512;2023-02-14T00:59:19;100882.50;;;28.36;61.30
36798;BME280;22748;8.426;99.512;2023-02-14T01:01:50;100877.34;;;28.41;60.98
36798;BME280;22748;8.426;99.512;2023-02-14T01:04:21;100894.91;;;28.44;61.36
36798;BME280;22748;8.426;99.512;2023-02-14T01:06:50;100889.34;;;28.45;61.05
36798;BME280;22748;8.426;99.512;2023-02-14T01:09:25;100894.09;;;28.43;61.02
36798;BME280;22748;8.426;99.512;2023-02-14T01:11:57;100896.22;;;28.48;61.10
36798;BME280;22748;8.426;99.512;2023-02-14T01:14:28;100898.31;;;28.52;60.87
36798;BME280;22748;8.426;99.512;2023-02-14T01:16:58;100907.44;;;28.58;60.49
36798;BME280;22748;8.426;99.512;2023-02-14T01:19:29;100909.94;;;28.60;60.22
36798;BME280;22748;8.426;99.512;2023-02-14T01:21:59;100906.63;;;28.64;60.50
36798;BME280;22748;8.426;99.512;2023-02-14T01:24:34;100913.47;;;28.67;61.04
36798;BME280;22748;8.426;99.512;2023-02-14T01:27:05;100915.72;;;28.70;60.97
36798;BME280;22748;8.426;99.512;2023-02-14T01:29:39;100919.91;;;28.73;60.97
36798;BME280;22748;8.426;99.512;2023-02-14T01:32:10;100920.31;;;28.76;60.79
36798;BME280;22748;8.426;99.512;2023-02-14T01:34:42;100916.38;;;28.79;60.77
36798;BME280;22748;8.426;99.512;2023-02-14T01:37:13;100925.72;;;28.83;60.94
36798;BME280;22748;8.426;99.512;2023-02-14T01:39:50;100928.19;;;28.84;61.01
36798;BME280;22748;8.426;99.512;2023-02-14T01:42:22;100929.38;;;28.68;61.27
36798;BME280;22748;8.426;99.512;2023-02-14T01:45:01;100936.34;;;28.56;61.67
36798;BME280;22748;8.426;99.512;2023-02-14T01:47:37;100940.09;;;28.55;62.06
36798;BME280;22748;8.426;99.512;2023-02-14T01:50:12;100937.44;;;28.68;61.52
36798;BME280;22748;8.426;99.512;2023-02-14T01:52:48;100936.06;;;28.79;61.67
36798;BME280;22748;8.426;99.512;2023-02-14T01:55:25;100939.38;;;28.81;61.07
36798;BME280;22748;8.426;99.512;2023-02-14T01:58:03;100935.28;;;28.92;60.60
36798;BME280;22748;8.426;99.512;2023-02-14T02:00:34;100937.97;;;28.99;60.42
36798;BME280;22748;8.426;99.512;2023-02-14T02:03:19;100936.06;;;28.86;61.16
36798;BME280;22748;8.426;99.512;2023-02-14T02:05:53;100936.31;;;28.98;60.45
36798;BME280;22748;8.426;99.512;2023-02-14T02:08:25;100941.94;;;29.03;60.34
36798;BME280;22748;8.426;99.512;2023-02-14T02:11:01;100947.00;;;28.84;60.15
36798;BME280;22748;8.426;99.512;2023-02-14T02:13:31;100942.69;;;28.83;60.32
36798;BME280;22748;8.426;99.512;2023-02-14T02:16:16;100944.38;;;28.98;60.25
36798;BME280;22748;8.426;99.512;2023-02-14T02:19:01;100944.81;;;29.01;60.11
36798;BME280;22748;8.426;99.512;2023-02-14T02:21:56;100944.03;;;29.14;60.44
36798;BME280;22748;8.426;99.512;2023-02-14T02:24:34;100949.44;;;29.14;60.27
36798;BME280;22748;8.426;99.512;2023-02-14T02:36:38;100952.38;;;29.46;58.97
36798;BME280;22748;8.426;99.512;2023-02-14T02:39:29;100948.22;;;29.50;58.74
36798;BME280;22748;8.426;99.512;2023-02-14T02:42:07;100941.41;;;29.54;58.99
36798;BME280;22748;8.426;99.512;2023-02-14T02:44:53;100937.47;;;29.50;58.44
36798;BME280;22748;8.426;99.512;2023-02-14T02:47:30;100944.72;;;29.56;58.43
36798;BME280;22748;8.426;99.512;2023-02-14T02:50:18;100935.59;;;29.57;58.35
36798;BME280;22748;8.426;99.512;2023-02-14T02:53:09;100942.03;;;29.63;58.21
36798;BME280;22748;8.426;99.512;2023-02-14T02:55:43;100937.50;;;29.70;57.71
36798;BME280;22748;8.426;99.512;2023-02-14T02:58:33;100932.13;;;29.77;57.58
36798;BME280;22748;8.426;99.512;2023-02-14T03:01:09;100933.78;;;29.78;57.27
36798;BME280;22748;8.426;99.512;2023-02-14T03:03:45;100935.44;;;29.85;56.72
36798;BME280;22748;8.426;99.512;2023-02-14T03:06:32;100928.59;;;29.83;56.59
36798;BME280;22748;8.426;99.512;2023-02-14T03:12:20;100924.44;;;30.00;56.44
36798;BME280;22748;8.426;99.512;2023-02-14T03:15:06;100926.91;;;30.08;56.36
36798;BME280;22748;8.426;99.512;2023-02-14T03:17:46;100925.03;;;30.15;56.66
36798;BME280;22748;8.426;99.512;2023-02-14T03:20:37;100921.06;;;30.18;56.54
36798;BME280;22748;8.426;99.512;2023-02-14T03:23:24;100915.09;;;30.16;55.92
36798;BME280;22748;8.426;99.512;2023-02-14T03:26:04;100921.50;;;30.22;55.47
36798;BME280;22748;8.426;99.512;2023-02-14T03:28:50;100922.72;;;30.26;55.54
36798;BME280;22748;8.426;99.512;2023-02-14T03:31:26;100926.25;;;30.26;55.29
36798;BME280;22748;8.426;99.512;2023-02-14T03:34:00;100917.34;;;30.26;55.38
36798;BME280;22748;8.426;99.512;2023-02-14T03:36:39;100911.34;;;30.24;55.38
36798;BME280;22748;8.426;99.512;2023-02-14T03:39:15;100906.38;;;30.34;55.04
36798;BME280;22748;8.426;99.512;2023-02-14T03:41:50;100900.75;;;30.42;55.12
36798;BME280;22748;8.426;99.512;2023-02-14T03:44:26;100901.75;;;30.48;54.81
36798;BME280;22748;8.426;99.512;2023-02-14T03:47:06;100896.78;;;30.51;54.45
36798;BME280;22748;8.426;99.512;2023-02-14T03:49:50;100887.22;;;30.55;53.71
36798;BME280;22748;8.426;99.512;2023-02-14T03:52:28;100880.94;;;30.62;53.56
36798;BME280;22748;8.426;99.512;2023-02-14T03:55:08;100874.09;;;30.66;53.30
36798;BME280;22748;8.426;99.512;2023-02-14T03:57:48;100868.91;;;30.71;53.27
36798;BME280;22748;8.426;99.512;2023-02-14T04:00:26;100868.44;;;30.74;52.94
36798;BME280;22748;8.426;99.512;2023-02-14T04:03:02;100865.94;;;30.79;52.36
36798;BME280;22748;8.426;99.512;2023-02-14T04:05:36;100856.38;;;30.83;51.30
36798;BME280;22748;8.426;99.512;2023-02-14T04:08:10;100853.03;;;30.88;51.61
36798;BME280;22748;8.426;99.512;2023-02-14T04:10:41;100846.56;;;30.95;51.17
36798;BME280;22748;8.426;99.512;2023-02-14T04:13:12;100848.41;;;31.02;51.13
36798;BME280;22748;8.426;99.512;2023-02-14T04:15:45;100831.16;;;31.03;51.67
36798;BME280;22748;8.426;99.512;2023-02-14T04:18:17;100830.97;;;31.04;51.21
36798;BME280;22748;8.426;99.512;2023-02-14T04:21:00;100824.34;;;31.00;50.78
36798;BME280;22748;8.426;99.512;2023-02-14T04:23:32;100822.34;;;30.89;50.75
36798;BME280;22748;8.426;99.512;2023-02-14T04:26:02;100818.13;;;31.00;50.88
36798;BME280;22748;8.426;99.512;2023-02-14T04:28:36;100814.94;;;31.09;50.95
36798;BME280;22748;8.426;99.512;2023-02-14T04:31:21;100811.97;;;31.17;50.66
36798;BME280;22748;8.426;99.512;2023-02-14T04:33:53;100807.63;;;31.16;50.63
36798;BME280;22748;8.426;99.512;2023-02-14T04:36:26;100802.66;;;31.13;50.39
36798;BME280;22748;8.426;99.512;2023-02-14T04:38:56;100791.19;;;31.18;50.63
36798;BME280;22748;8.426;99.512;2023-02-14T04:41:42;100794.50;;;31.20;49.67
36798;BME280;22748;8.426;99.512;2023-02-14T04:44:23;100773.84;;;31.32;49.45
36798;BME280;22748;8.426;99.512;2023-02-14T04:46:55;100779.16;;;31.46;49.00
36798;BME280;22748;8.426;99.512;2023-02-14T04:49:25;100768.28;;;31.52;48.93
36798;BME280;22748;8.426;99.512;2023-02-14T04:51:55;100756.59;;;31.59;49.24
36798;BME280;22748;8.426;99.512;2023-02-14T04:54:26;100759.44;;;31.64;48.76
36798;BME280;22748;8.426;99.512;2023-02-14T04:57:00;100750.66;;;31.68;49.03
36798;BME280;22748;8.426;99.512;2023-02-14T04:59:31;100742.34;;;31.70;49.37
36798;BME280;22748;8.426;99.512;2023-02-14T05:02:05;100740.25;;;31.72;49.32
36798;BME280;22748;8.426;99.512;2023-02-14T05:04:35;100727.72;;;31.77;48.82
36798;BME280;22748;8.426;99.512;2023-02-14T05:07:07;100721.66;;;31.82;48.96
36798;BME280;22748;8.426;99.512;2023-02-14T05:09:39;100713.31;;;31.84;48.97
36798;BME280;22748;8.426;99.512;2023-02-14T05:12:10;100703.25;;;31.91;48.56
36798;BME280;22748;8.426;99.512;2023-02-14T05:14:41;100699.66;;;31.97;48.07
36798;BME280;22748;8.426;99.512;2023-02-14T05:17:14;100685.91;;;31.98;48.58
36798;BME280;22748;8.426;99.512;2023-02-14T05:19:44;100682.09;;;32.06;48.41
36798;BME280;22748;8.426;99.512;2023-02-14T05:22:15;100684.41;;;32.03;48.26
36798;BME280;22748;8.426;99.512;2023-02-14T05:24:46;100679.00;;;32.03;48.37
36798;BME280;22748;8.426;99.512;2023-02-14T05:27:19;100671.19;;;31.94;48.80
36798;BME280;22748;8.426;99.512;2023-02-14T05:29:58;100661.44;;;31.93;48.22
36798;BME280;22748;8.426;99.512;2023-02-14T05:32:34;100652.25;;;32.01;48.54
36798;BME280;22748;8.426;99.512;2023-02-14T05:35:06;100644.25;;;32.06;48.39
36798;BME280;22748;8.426;99.512;2023-02-14T05:37:38;100645.91;;;32.07;47.93
36798;BME280;22748;8.426;99.512;2023-02-14T05:40:11;100643.78;;;32.09;47.98
36798;BME280;22748;8.426;99.512;2023-02-14T05:42:44;100630.06;;;32.11;48.07
36798;BME280;22748;8.426;99.512;2023-02-14T05:45:15;100629.38;;;32.15;48.47
36798;BME280;22748;8.426;99.512;2023-02-14T05:48:00;100612.94;;;32.17;48.39
36798;BME280;22748;8.426;99.512;2023-02-14T05:50:32;100612.47;;;32.20;47.88
36798;BME280;22748;8.426;99.512;2023-02-14T05:53:07;100604.13;;;32.22;48.01
36798;BME280;22748;8.426;99.512;2023-02-14T05:55:40;100602.84;;;32.24;48.06
36798;BME280;22748;8.426;99.512;2023-02-14T05:58:10;100592.03;;;32.24;47.82
36798;BME280;22748;8.426;99.512;2023-02-14T06:00:43;100582.41;;;32.28;47.23
36798;BME280;22748;8.426;99.512;2023-02-14T06:03:16;100576.28;;;32.33;47.57
36798;BME280;22748;8.426;99.512;2023-02-14T06:05:45;100567.25;;;32.39;47.39
36798;BME280;22748;8.426;99.512;2023-02-14T06:08:17;100566.66;;;32.25;46.90
36798;BME280;22748;8.426;99.512;2023-02-14T06:10:58;100554.91;;;32.31;47.41
36798;BME280;22748;8.426;99.512;2023-02-14T06:13:28;100547.75;;;32.37;47.75
36798;BME280;22748;8.426;99.512;2023-02-14T06:16:04;100558.22;;;32.45;47.71
36798;BME280;22748;8.426;99.512;2023-02-14T06:18:41;100546.31;;;32.46;47.88
36798;BME280;22748;8.426;99.512;2023-02-14T06:21:11;100540.31;;;32.44;48.01
36798;BME280;22748;8.426;99.512;2023-02-14T06:23:42;100535.50;;;32.46;47.18
36798;BME280;22748;8.426;99.512;2023-02-14T06:26:14;100524.84;;;32.51;46.84
36798;BME280;22748;8.426;99.512;2023-02-14T06:28:44;100523.31;;;32.55;46.42
36798;BME280;22748;8.426;99.512;2023-02-14T06:31:17;100516.25;;;32.54;46.77
36798;BME280;22748;8.426;99.512;2023-02-14T06:33:56;100512.50;;;32.55;46.55
36798;BME280;22748;8.426;99.512;2023-02-14T06:36:28;100497.34;;;32.54;46.91
36798;BME280;22748;8.426;99.512;2023-02-14T06:38:58;100494.63;;;32.54;45.70
36798;BME280;22748;8.426;99.512;2023-02-14T06:41:29;100487.94;;;32.57;45.92
36798;BME280;22748;8.426;99.512;2023-02-14T06:43:59;100489.91;;;32.62;45.00
36798;BME280;22748;8.426;99.512;2023-02-14T06:49:27;100464.88;;;32.66;44.85
36798;BME280;22748;8.426;99.512;2023-02-14T06:52:18;100461.25;;;32.61;44.90
36798;BME280;22748;8.426;99.512;2023-02-14T06:55:06;100462.88;;;32.62;44.69
36798;BME280;22748;8.426;99.512;2023-02-14T06:57:39;100452.06;;;32.62;44.50
36798;BME280;22748;8.426;99.512;2023-02-14T07:00:33;100444.81;;;32.62;44.60
36798;BME280;22748;8.426;99.512;2023-02-14T07:03:06;100437.00;;;32.66;45.02
36798;BME280;22748;8.426;99.512;2023-02-14T07:05:39;100431.28;;;32.62;44.48
36798;BME280;22748;8.426;99.512;2023-02-14T07:08:17;100429.38;;;32.63;43.99
36798;BME280;22748;8.426;99.512;2023-02-14T07:10:47;100412.09;;;32.64;44.16
36798;BME280;22748;8.426;99.512;2023-02-14T07:13:17;100410.31;;;32.69;44.71
36798;BME280;22748;8.426;99.512;2023-02-14T07:15:47;100413.78;;;32.82;44.21
36798;BME280;22748;8.426;99.512;2023-02-14T07:18:18;100395.88;;;32.92;44.10
36798;BME280;22748;8.426;99.512;2023-02-14T07:20:51;100394.31;;;32.96;43.79
36798;BME280;22748;8.426;99.512;2023-02-14T07:23:20;100388.09;;;32.96;43.20
36798;BME280;22748;8.426;99.512;2023-02-14T07:25:51;100394.09;;;32.98;43.06
36798;BME280;22748;8.426;99.512;2023-02-14T07:28:31;100390.06;;;33.00;43.21
36798;BME280;22748;8.426;99.512;2023-02-14T07:31:01;100384.78;;;33.06;43.30
36798;BME280;22748;8.426;99.512;2023-02-14T07:33:32;100376.44;;;33.07;43.21
36798;BME280;22748;8.426;99.512;2023-02-14T07:36:07;100377.50;;;33.06;43.40
36798;BME280;22748;8.426;99.512;2023-02-14T07:38:38;100372.41;;;33.10;43.14
36798;BME280;22748;8.426;99.512;2023-02-14T07:41:09;100374.19;;;33.04;43.32
36798;BME280;22748;8.426;99.512;2023-02-14T07:43:40;100362.09;;;33.07;43.74
36798;BME280;22748;8.426;99.512;2023-02-14T07:46:11;100362.66;;;33.09;43.26
36798;BME280;22748;8.426;99.512;2023-02-14T07:48:47;100367.69;;;33.17;43.05
36798;BME280;22748;8.426;99.512;2023-02-14T07:51:22;100368.88;;;33.09;42.36
36798;BME280;22748;8.426;99.512;2023-02-14T07:53:53;100368.16;;;33.14;43.27
36798;BME280;22748;8.426;99.512;2023-02-14T07:56:25;100354.78;;;33.07;42.45
36798;BME280;22748;8.426;99.512;2023-02-14T07:58:54;100346.50;;;33.14;42.60
36798;BME280;22748;8.426;99.512;2023-02-14T08:01:25;100356.50;;;33.13;42.89
36798;BME280;22748;8.426;99.512;2023-02-14T08:04:29;100354.72;;;33.19;43.08
36798;BME280;22748;8.426;99.512;2023-02-14T08:07:01;100352.25;;;33.17;43.67
36798;BME280;22748;8.426;99.512;2023-02-14T08:09:35;100353.06;;;33.18;44.68
36798;BME280;22748;8.426;99.512;2023-02-14T08:12:06;100352.91;;;33.25;44.62
36798;BME280;22748;8.426;99.512;2023-02-14T08:14:50;100349.47;;;33.29;45.03
36798;BME280;22748;8.426;99.512;2023-02-14T08:17:21;100357.00;;;33.27;45.05
36798;BME280;22748;8.426;99.512;2023-02-14T08:19:52;100357.50;;;33.24;45.18
36798;BME280;22748;8.426;99.512;2023-02-14T08:22:24;100355.38;;;33.26;45.46
36798;BME280;22748;8.426;99.512;2023-02-14T08:24:53;100355.88;;;33.23;45.35
36798;BME280;22748;8.426;99.512;2023-02-14T08:27:23;100361.38;;;33.28;44.59
36798;BME280;22748;8.426;99.512;2023-02-14T08:29:53;100348.50;;;33.35;44.58
36798;BME280;22748;8.426;99.512;2023-02-14T08:32:23;100351.78;;;33.37;43.59
36798;BME280;22748;8.426;99.512;2023-02-14T08:34:54;100351.44;;;33.34;42.74
36798;BME280;22748;8.426;99.512;2023-02-14T08:37:24;100353.81;;;33.30;43.18
36798;BME280;22748;8.426;99.512;2023-02-14T08:39:55;100354.72;;;33.36;42.46
36798;BME280;22748;8.426;99.512;2023-02-14T08:42:29;100352.28;;;33.34;42.55
36798;BME280;22748;8.426;99.512;2023-02-14T08:45:00;100349.63;;;33.39;43.18
36798;BME280;22748;8.426;99.512;2023-02-14T08:47:31;100352.41;;;33.45;43.93
36798;BME280;22748;8.426;99.512;2023-02-14T08:50:02;100353.00;;;33.47;44.19
36798;BME280;22748;8.426;99.512;2023-02-14T08:52:35;100348.66;;;33.46;43.56
36798;BME280;22748;8.426;99.512;2023-02-14T08:55:05;100348.59;;;33.40;42.94
36798;BME280;22748;8.426;99.512;2023-02-14T08:57:36;100347.16;;;33.38;43.49
36798;BME280;22748;8.426;99.512;2023-02-14T09:00:07;100357.81;;;33.45;42.95
36798;BME280;22748;8.426;99.512;2023-02-14T09:02:36;100352.59;;;33.38;42.83
36798;BME280;22748;8.426;99.512;2023-02-14T09:05:07;100358.56;;;33.40;43.01
36798;BME280;22748;8.426;99.512;2023-02-14T09:07:38;100352.84;;;33.36;42.55
36798;BME280;22748;8.426;99.512;2023-02-14T09:10:09;100351.13;;;33.30;42.53
36798;BME280;22748;8.426;99.512;2023-02-14T09:12:40;100349.00;;;33.32;42.44
36798;BME280;22748;8.426;99.512;2023-02-14T09:15:11;100353.91;;;33.35;42.19
36798;BME280;22748;8.426;99.512;2023-02-14T09:17:41;100355.56;;;33.36;41.65
36798;BME280;22748;8.426;99.512;2023-02-14T09:20:13;100362.84;;;33.36;41.53
36798;BME280;22748;8.426;99.512;2023-02-14T09:22:45;100349.81;;;33.33;41.81
36798;BME280;22748;8.426;99.512;2023-02-14T09:25:15;100347.34;;;33.31;41.61
36798;BME280;22748;8.426;99.512;2023-02-14T09:27:44;100347.34;;;33.31;42.13
36798;BME280;22748;8.426;99.512;2023-02-14T09:30:16;100351.78;;;33.37;41.37
36798;BME280;22748;8.426;99.512;2023-02-14T09:32:47;100353.72;;;33.42;41.03
36798;BME280;22748;8.426;99.512;2023-02-14T09:35:18;100351.03;;;33.42;40.63
36798;BME280;22748;8.426;99.512;2023-02-14T09:38:03;100347.28;;;33.43;40.75
36798;BME280;22748;8.426;99.512;2023-02-14T09:40:47;100344.38;;;33.50;39.78
36798;BME280;22748;8.426;99.512;2023-02-14T09:43:22;100346.00;;;33.34;39.74
36798;BME280;22748;8.426;99.512;2023-02-14T09:45:58;100348.81;;;33.39;39.90
36798;BME280;22748;8.426;99.512;2023-02-14T09:48:32;100342.59;;;33.38;39.84
36798;BME280;22748;8.426;99.512;2023-02-14T09:51:06;100350.03;;;33.31;38.81
36798;BME280;22748;8.426;99.512;2023-02-14T09:53:44;100343.56;;;33.32;39.88
36798;BME280;22748;8.426;99.512;2023-02-14T09:56:21;100344.91;;;33.30;39.49
36798;BME280;22748;8.426;99.512;2023-02-14T09:59:00;100343.88;;;33.36;39.53
36798;BME280;22748;8.426;99.512;2023-02-14T10:01:38;100347.91;;;33.33;40.16
36798;BME280;22748;8.426;99.512;2023-02-14T10:04:21;100346.88;;;33.34;39.81
36798;BME280;22748;8.426;99.512;2023-02-14T10:06:57;100338.81;;;33.39;39.65
36798;BME280;22748;8.426;99.512;2023-02-14T10:09:41;100344.00;;;33.41;39.86
36798;BME280;22748;8.426;99.512;2023-02-14T10:12:21;100355.63;;;33.42;39.85
36798;BME280;22748;8.426;99.512;2023-02-14T10:14:54;100345.19;;;33.33;40.31
36798;BME280;22748;8.426;99.512;2023-02-14T10:17:35;100348.66;;;33.29;40.75
36798;BME280;22748;8.426;99.512;2023-02-14T10:20:17;100349.41;;;33.24;40.73
36798;BME280;22748;8.426;99.512;2023-02-14T10:22:58;100350.16;;;33.36;40.62
36798;BME280;22748;8.426;99.512;2023-02-14T10:25:39;100357.53;;;33.41;40.82
36798;BME280;22748;8.426;99.512;2023-02-14T10:28:14;100354.41;;;33.49;40.55
36798;BME280;22748;8.426;99.512;2023-02-14T10:30:52;100359.47;;;33.46;41.10
36798;BME280;22748;8.426;99.512;2023-02-14T10:33:29;100362.19;;;33.46;41.48
36798;BME280;22748;8.426;99.512;2023-02-14T10:36:04;100364.91;;;33.46;41.36
36798;BME280;22748;8.426;99.512;2023-02-14T10:38:49;100366.53;;;33.47;41.22
36798;BME280;22748;8.426;99.512;2023-02-14T10:41:30;100367.09;;;33.49;41.26
36798;BME280;22748;8.426;99.512;2023-02-14T10:44:18;100365.41;;;33.26;41.46
36798;BME280;22748;8.426;99.512;2023-02-14T10:46:56;100375.88;;;33.22;41.50
36798;BME280;22748;8.426;99.512;2023-02-14T10:49:38;100372.75;;;33.13;41.79
36798;BME280;22748;8.426;99.512;2023-02-14T10:52:19;100378.66;;;33.10;42.16
36798;BME280;22748;8.426;99.512;2023-02-14T10:54:56;100382.41;;;33.09;42.09
36798;BME280;22748;8.426;99.512;2023-02-14T10:57:31;100389.31;;;33.17;42.20
36798;BME280;22748;8.426;99.512;2023-02-14T11:00:07;100393.91;;;33.16;42.40
36798;BME280;22748;8.426;99.512;2023-02-14T11:02:45;100402.06;;;33.05;42.89
36798;BME280;22748;8.426;99.512;2023-02-14T11:05:24;100406.03;;;33.14;42.76
36798;BME280;22748;8.426;99.512;2023-02-14T11:07:58;100415.06;;;33.19;42.58
36798;BME280;22748;8.426;99.512;2023-02-14T11:10:31;100418.69;;;33.25;42.87
36798;BME280;22748;8.426;99.512;2023-02-14T11:13:32;100423.53;;;33.23;43.00
36798;BME280;22748;8.426;99.512;2023-02-14T11:16:05;100426.91;;;33.30;43.36
36798;BME280;22748;8.426;99.512;2023-02-14T11:18:38;100428.06;;;33.34;43.74
36798;BME280;22748;8.426;99.512;2023-02-14T11:21:11;100433.78;;;33.38;43.62
36798;BME280;22748;8.426;99.512;2023-02-14T11:23:43;100441.69;;;33.39;43.85
36798;BME280;22748;8.426;99.512;2023-02-14T11:26:22;100438.97;;;33.39;42.91
36798;BME280;22748;8.426;99.512;2023-02-14T11:28:58;100444.97;;;33.42;43.22
36798;BME280;22748;8.426;99.512;2023-02-14T11:31:32;100448.75;;;33.40;43.17
36798;BME280;22748;8.426;99.512;2023-02-14T11:34:05;100449.78;;;33.39;43.40
36798;BME280;22748;8.426;99.512;2023-02-14T11:36:40;100456.88;;;33.40;43.72
36798;BME280;22748;8.426;99.512;2023-02-14T11:39:28;100463.09;;;33.41;43.89
36798;BME280;22748;8.426;99.512;2023-02-14T11:42:04;100455.78;;;33.42;44.19
36798;BME280;22748;8.426;99.512;2023-02-14T11:44:37;100465.81;;;33.41;44.41
36798;BME280;22748;8.426;99.512;2023-02-14T11:47:21;100468.75;;;33.39;44.00
36798;BME280;22748;8.426;99.512;2023-02-14T11:49:56;100476.88;;;33.39;44.34
36798;BME280;22748;8.426;99.512;2023-02-14T11:52:28;100479.81;;;33.38;44.17
36798;BME280;22748;8.426;99.512;2023-02-14T11:55:00;100478.91;;;33.32;44.69
36798;BME280;22748;8.426;99.512;2023-02-14T11:57:36;100482.66;;;33.31;44.69
36798;BME280;22748;8.426;99.512;2023-02-14T12:00:15;100481.78;;;33.26;44.88
36798;BME280;22748;8.426;99.512;2023-02-14T12:02:49;100482.59;;;33.26;45.19
36798;BME280;22748;8.426;99.512;2023-02-14T12:05:27;100478.72;;;33.22;45.79
36798;BME280;22748;8.426;99.512;2023-02-14T12:08:12;100481.66;;;33.20;45.79
36798;BME280;22748;8.426;99.512;2023-02-14T12:11:03;100490.03;;;33.19;46.08
36798;BME280;22748;8.426;99.512;2023-02-14T12:13:37;100490.75;;;33.14;46.10
36798;BME280;22748;8.426;99.512;2023-02-14T12:16:19;100495.91;;;33.16;46.48
36798;BME280;22748;8.426;99.512;2023-02-14T12:18:53;100495.69;;;33.17;46.26
36798;BME280;22748;8.426;99.512;2023-02-14T12:21:42;100502.97;;;33.17;46.60
36798;BME280;22748;8.426;99.512;2023-02-14T12:24:30;100505.91;;;33.15;46.52
36798;BME280;22748;8.426;99.512;2023-02-14T12:27:18;100517.25;;;33.12;46.73
36798;BME280;22748;8.426;99.512;2023-02-14T12:29:56;100524.06;;;33.15;46.48
36798;BME280;22748;8.426;99.512;2023-02-14T12:32:33;100523.25;;;33.14;46.70
36798;BME280;22748;8.426;99.512;2023-02-14T12:35:15;100528.88;;;33.13;46.87
36798;BME280;22748;8.426;99.512;2023-02-14T12:38:01;100535.09;;;33.13;46.89
36798;BME280;22748;8.426;99.512;2023-02-14T12:40:42;100534.28;;;33.13;46.84
36798;BME280;22748;8.426;99.512;2023-02-14T12:43:36;100541.81;;;33.11;47.07
36798;BME280;22748;8.426;99.512;2023-02-14T12:49:30;100545.00;;;33.08;47.54
36798;BME280;22748;8.426;99.512;2023-02-14T12:52:24;100548.78;;;33.07;47.70
36798;BME280;22748;8.426;99.512;2023-02-14T12:55:28;100544.63;;;33.04;47.85
36798;BME280;22748;8.426;99.512;2023-02-14T12:58:17;100556.75;;;33.02;47.81
36798;BME280;22748;8.426;99.512;2023-02-14T13:01:03;100556.50;;;33.03;47.91
36798;BME280;22748;8.426;99.512;2023-02-14T13:03:57;100566.50;;;33.03;47.72
36798;BME280;22748;8.426;99.512;2023-02-14T13:06:44;100571.91;;;33.03;47.75
36798;BME280;22748;8.426;99.512;2023-02-14T13:09:32;100569.72;;;32.99;47.88
36798;BME280;22748;8.426;99.512;2023-02-14T13:12:18;100572.06;;;32.96;47.88
36798;BME280;22748;8.426;99.512;2023-02-14T13:15:05;100585.81;;;32.94;47.98
36798;BME280;22748;8.426;99.512;2023-02-14T13:17:48;100586.66;;;32.95;48.21
36798;BME280;22748;8.426;99.512;2023-02-14T13:20:41;100586.66;;;32.95;48.08
36798;BME280;22748;8.426;99.512;2023-02-14T13:23:19;100584.19;;;32.93;48.19
36798;BME280;22748;8.426;99.512;2023-02-14T13:25:56;100593.13;;;32.94;48.22
36798;BME280;22748;8.426;99.512;2023-02-14T13:28:30;100593.34;;;32.92;48.55
36798;BME280;22748;8.426;99.512;2023-02-14T13:31:02;100604.16;;;32.92;48.67
36798;BME280;22748;8.426;99.512;2023-02-14T13:33:38;100597.34;;;32.90;48.51
36798;BME280;22748;8.426;99.512;2023-02-14T13:36:11;100605.47;;;32.90;48.51
36798;BME280;22748;8.426;99.512;2023-02-14T13:38:47;100609.25;;;32.89;48.78
36798;BME280;22748;8.426;99.512;2023-02-14T13:41:20;100619.25;;;32.88;48.92
36798;BME280;22748;8.426;99.512;2023-02-14T13:43:52;100620.06;;;32.89;48.72
36798;BME280;22748;8.426;99.512;2023-02-14T13:46:46;100620.28;;;32.87;48.80
36798;BME280;22748;8.426;99.512;2023-02-14T13:49:29;100628.41;;;32.87;49.01
36798;BME280;22748;8.426;99.512;2023-02-14T13:52:04;100632.19;;;32.86;49.14
36798;BME280;22748;8.426;99.512;2023-02-14T13:54:42;100631.81;;;32.83;49.06